createdAt,value
2023-03-06T00:00:20.281Z,9.77
2023-03-06T00:02:47.071Z,8.60
2023-03-06T00:05:14.840Z,8.97
2023-03-06T00:07:41.939Z,8.17
2023-03-06T00:10:12.198Z,9.60
2023-03-06T00:12:38.859Z,9.60
2023-03-06T00:15:06.161Z,8.80
2023-03-06T00:17:32.866Z,10.50
2023-03-06T00:19:59.511Z,9.43
2023-03-06T00:22:26.653Z,10.77
2023-03-06T00:24:54.161Z,10.10
2023-03-06T00:27:23.879Z,7.90
2023-03-06T00:29:57.884Z,8.73
2023-03-06T00:32:25.290Z,8.17
2023-03-06T00:34:53.134Z,8.13
2023-03-06T00:37:20.673Z,8.23
2023-03-06T00:39:47.352Z,6.93
2023-03-06T00:42:15.699Z,8.13
2023-03-06T00:44:42.359Z,9.33
2023-03-06T00:47:09.396Z,8.60
2023-03-06T00:49:36.032Z,8.33
2023-03-06T00:52:03.106Z,6.40
2023-03-06T00:54:29.767Z,10.07
2023-03-06T00:56:56.484Z,8.27
2023-03-06T00:59:23.145Z,8.53
2023-03-06T01:01:51.790Z,9.83
2023-03-06T01:04:18.513Z,8.30
2023-03-06T01:06:45.203Z,10.40
2023-03-06T01:09:11.846Z,9.93
2023-03-06T01:11:38.509Z,8.43
2023-03-06T01:14:05.313Z,7.43
2023-03-06T01:16:32.160Z,8.73
2023-03-06T01:18:58.928Z,10.70
2023-03-06T01:21:25.991Z,12.00
2023-03-06T01:23:52.694Z,12.77
2023-03-06T01:26:19.412Z,11.57
2023-03-06T01:28:46.144Z,12.00
2023-03-06T01:31:13.106Z,13.30
2023-03-06T01:33:40.016Z,12.03
2023-03-06T01:36:09.075Z,10.63
2023-03-06T01:38:36.227Z,11.30
2023-03-06T01:41:04.742Z,10.43
2023-03-06T01:43:37.030Z,10.27
2023-03-06T01:46:24.930Z,9.60
2023-03-06T01:49:18.451Z,11.50
2023-03-06T01:51:53.940Z,16.10
2023-03-06T01:54:44.656Z,13.13
2023-03-06T01:57:20.373Z,9.33
2023-03-06T01:59:52.974Z,10.10
2023-03-06T02:02:20.761Z,10.10
2023-03-06T02:04:47.812Z,10.47
2023-03-06T02:07:16.520Z,10.37
2023-03-06T02:09:43.191Z,13.93
2023-03-06T02:12:12.647Z,10.00
2023-03-06T02:14:41.180Z,12.63
2023-03-06T02:17:10.534Z,9.77
2023-03-06T02:20:13.070Z,9.27
2023-03-06T02:23:03.040Z,9.17
2023-03-06T02:25:43.175Z,9.80
2023-03-06T02:28:14.297Z,11.53
2023-03-06T02:30:42.745Z,12.43
2023-03-06T02:33:22.482Z,9.97
2023-03-06T02:36:13.367Z,9.80
2023-03-06T02:38:49.825Z,9.83
2023-03-06T02:41:17.384Z,11.70
2023-03-06T02:43:48.799Z,10.30
2023-03-06T02:46:15.627Z,9.37
2023-03-06T02:48:42.414Z,10.07
2023-03-06T02:51:09.130Z,8.93
2023-03-06T02:53:35.826Z,10.80
2023-03-06T02:56:02.513Z,8.73
2023-03-06T02:58:29.233Z,9.73
2023-03-06T03:00:55.932Z,13.00
2023-03-06T03:03:22.998Z,13.67
2023-03-06T03:05:49.636Z,12.10
2023-03-06T03:08:23.446Z,9.97
2023-03-06T03:10:55.742Z,10.93
2023-03-06T03:13:23.749Z,12.20
2023-03-06T03:16:06.140Z,12.17
2023-03-06T03:18:34.204Z,11.10
2023-03-06T03:21:01.443Z,11.57
2023-03-06T03:23:28.558Z,12.90
2023-03-06T03:26:16.520Z,10.80
2023-03-06T03:28:48.187Z,12.50
2023-03-06T03:31:17.791Z,10.80
2023-03-06T03:33:44.607Z,11.60
2023-03-06T03:36:12.473Z,10.23
2023-03-06T03:38:42.417Z,10.87
2023-03-06T03:41:10.194Z,8.60
2023-03-06T03:43:36.919Z,9.70
2023-03-06T03:46:03.840Z,9.13
2023-03-06T03:48:30.986Z,10.27
2023-03-06T03:51:08.813Z,11.17
2023-03-06T03:53:39.377Z,11.33
2023-03-06T03:56:07.443Z,9.73
2023-03-06T03:58:39.760Z,11.20
2023-03-06T04:01:07.053Z,11.20
2023-03-06T04:03:34.404Z,10.10
2023-03-06T04:06:02.034Z,11.83
2023-03-06T04:08:29.025Z,11.17
2023-03-06T04:10:56.314Z,12.67
2023-03-06T04:13:24.167Z,11.53
2023-03-06T04:15:53.100Z,11.53
2023-03-06T04:18:23.064Z,13.30
2023-03-06T04:20:50.205Z,11.73
2023-03-06T04:23:18.605Z,12.87
2023-03-06T04:25:45.992Z,13.47
2023-03-06T04:28:13.342Z,12.37
2023-03-06T04:30:40.069Z,11.27
2023-03-06T04:33:07.738Z,13.43
2023-03-06T04:35:35.131Z,13.90
2023-03-06T04:38:06.853Z,15.77
2023-03-06T04:40:35.076Z,11.30
2023-03-06T04:43:04.087Z,14.73
2023-03-06T04:45:32.446Z,12.67
2023-03-06T04:47:59.331Z,13.10
2023-03-06T04:50:28.300Z,12.57
2023-03-06T04:52:55.003Z,12.20
2023-03-06T04:55:21.668Z,13.57
2023-03-06T04:57:48.625Z,13.50
2023-03-06T05:00:19.585Z,10.53
2023-03-06T05:02:47.422Z,36.03
2023-03-06T05:05:15.405Z,26.37
2023-03-06T05:07:42.280Z,12.97
2023-03-06T05:10:12.603Z,10.30
2023-03-06T05:12:39.545Z,15.87
2023-03-06T05:15:07.677Z,12.93
2023-03-06T05:17:34.483Z,11.40
2023-03-06T05:20:01.248Z,11.17
2023-03-06T05:22:27.941Z,12.70
2023-03-06T05:24:54.578Z,11.83
2023-03-06T05:27:21.325Z,11.77
2023-03-06T05:29:48.024Z,13.13
2023-03-06T05:32:16.193Z,13.60
2023-03-06T05:34:42.941Z,11.00
2023-03-06T05:37:09.617Z,13.30
2023-03-06T05:39:36.256Z,12.90
2023-03-06T05:42:02.961Z,12.60
2023-03-06T05:44:33.711Z,13.73
2023-03-06T05:47:00.748Z,12.20
2023-03-06T05:49:32.604Z,12.27
2023-03-06T05:51:59.599Z,11.77
2023-03-06T05:54:26.775Z,11.67
2023-03-06T05:56:53.573Z,11.67
2023-03-06T05:59:20.595Z,12.77
2023-03-06T06:01:47.286Z,13.20
2023-03-06T06:04:13.942Z,11.13
2023-03-06T06:06:40.619Z,11.77
2023-03-06T06:09:07.253Z,9.77
2023-03-06T06:11:33.969Z,10.83
2023-03-06T06:14:00.614Z,16.57
2023-03-06T06:16:27.248Z,12.37
2023-03-06T06:18:53.874Z,13.07
2023-03-06T06:21:20.832Z,12.80
2023-03-06T06:23:47.521Z,11.43
2023-03-06T06:26:14.221Z,12.63
2023-03-06T06:28:40.934Z,14.33
2023-03-06T06:31:12.145Z,13.03
2023-03-06T06:33:40.046Z,11.23
2023-03-06T06:36:18.816Z,15.53
2023-03-06T06:38:45.572Z,13.60
2023-03-06T06:41:36.075Z,11.93
2023-03-06T06:43:59.215Z,12.93
2023-03-06T06:47:10.806Z,12.70
2023-03-06T06:49:14.132Z,13.90
2023-03-06T06:51:41.695Z,15.60
2023-03-06T06:54:08.447Z,12.90
2023-03-06T06:56:35.291Z,11.40
2023-03-06T06:59:15.698Z,16.43
2023-03-06T07:01:43.801Z,12.60
2023-03-06T07:04:13.429Z,11.60
2023-03-06T07:06:40.761Z,15.23
2023-03-06T07:09:07.521Z,11.27
2023-03-06T07:11:34.217Z,12.60
2023-03-06T07:14:01.794Z,14.57
2023-03-06T07:16:28.527Z,18.43
2023-03-06T07:18:55.330Z,14.13
2023-03-06T07:21:22.026Z,15.63
2023-03-06T07:23:48.710Z,12.70
2023-03-06T07:26:15.377Z,13.87
2023-03-06T07:28:51.934Z,14.87
2023-03-06T07:31:24.383Z,20.43
2023-03-06T07:33:52.653Z,13.43
2023-03-06T07:36:20.314Z,12.73
2023-03-06T07:38:47.431Z,12.27
2023-03-06T07:41:16.250Z,14.97
2023-03-06T07:43:44.265Z,12.57
2023-03-06T07:46:14.147Z,13.73
2023-03-06T07:48:41.798Z,14.87
2023-03-06T07:51:13.611Z,12.00
2023-03-06T07:53:40.297Z,13.90
2023-03-06T07:56:08.951Z,12.13
2023-03-06T07:58:38.019Z,13.50
2023-03-06T08:01:11.164Z,11.93
2023-03-06T08:03:38.164Z,11.27
2023-03-06T08:06:16.848Z,12.37
2023-03-06T08:08:45.709Z,10.57
2023-03-06T08:11:14.970Z,11.80
2023-03-06T08:13:41.873Z,12.20
2023-03-06T08:16:09.569Z,11.93
2023-03-06T08:18:39.437Z,11.43
2023-03-06T08:21:11.911Z,10.57
2023-03-06T08:23:39.470Z,10.73
2023-03-06T08:26:14.488Z,11.30
2023-03-06T08:28:41.467Z,11.67
2023-03-06T08:31:27.091Z,11.13
2023-03-06T08:33:55.143Z,11.20
2023-03-06T08:36:22.248Z,16.13
2023-03-06T08:38:48.915Z,13.07
2023-03-06T08:41:15.692Z,11.70
2023-03-06T08:43:42.767Z,13.40
2023-03-06T08:46:10.537Z,13.77
2023-03-06T08:48:37.536Z,12.00
2023-03-06T08:51:04.460Z,12.30
2023-03-06T08:53:42.592Z,15.50
2023-03-06T08:56:42.755Z,15.03
2023-03-06T08:59:11.914Z,12.53
2023-03-06T09:01:39.031Z,11.63
2023-03-06T09:04:11.618Z,13.70
2023-03-06T09:06:41.427Z,11.80
2023-03-06T09:09:08.820Z,12.20
2023-03-06T09:11:35.894Z,11.10
2023-03-06T09:14:02.831Z,10.97
2023-03-06T09:16:29.531Z,16.27
2023-03-06T09:18:57.790Z,15.00
2023-03-06T09:21:26.076Z,18.13
2023-03-06T09:23:52.775Z,16.07
2023-03-06T09:26:19.613Z,14.30
2023-03-06T09:28:47.002Z,13.30
2023-03-06T09:31:19.238Z,18.73
2023-03-06T09:33:46.869Z,12.13
2023-03-06T09:36:19.389Z,16.70
2023-03-06T09:38:48.300Z,13.33
2023-03-06T09:41:39.178Z,15.20
2023-03-06T09:44:08.710Z,13.83
2023-03-06T09:47:03.666Z,14.90
2023-03-06T09:50:11.735Z,11.77
2023-03-06T09:53:08.663Z,15.20
2023-03-06T09:55:40.190Z,12.47
2023-03-06T09:58:19.975Z,14.03
2023-03-06T10:00:51.323Z,13.20
2023-03-06T10:03:25.722Z,13.60
2023-03-06T10:06:22.417Z,12.73
2023-03-06T10:09:00.564Z,11.93
2023-03-06T10:11:47.173Z,13.03
2023-03-06T10:14:35.015Z,13.60
2023-03-06T10:17:02.320Z,14.40
2023-03-06T10:19:37.519Z,12.53
2023-03-06T10:22:07.334Z,14.13
2023-03-06T10:25:02.592Z,15.37
2023-03-06T10:27:47.898Z,18.33
2023-03-06T10:30:32.851Z,17.40
2023-03-06T10:33:02.692Z,16.73
2023-03-06T10:35:47.532Z,15.60
2023-03-06T10:38:19.594Z,15.43
2023-03-06T10:40:57.996Z,14.70
2023-03-06T10:43:25.638Z,15.80
2023-03-06T10:45:53.578Z,14.17
2023-03-06T10:48:23.903Z,18.03
2023-03-06T10:50:51.547Z,15.67
2023-03-06T10:53:29.037Z,16.50
2023-03-06T10:56:00.997Z,14.10
2023-03-06T10:58:30.116Z,14.47
2023-03-06T11:01:09.360Z,13.87
2023-03-06T11:03:37.425Z,15.43
2023-03-06T11:06:13.193Z,12.40
2023-03-06T11:08:42.482Z,16.73
2023-03-06T11:11:36.376Z,11.33
2023-03-06T11:14:15.172Z,16.23
2023-03-06T11:16:52.657Z,10.93
2023-03-06T11:19:25.591Z,11.53
2023-03-06T11:22:01.160Z,10.10
2023-03-06T11:24:40.512Z,9.17
2023-03-06T11:27:30.387Z,8.50
2023-03-06T11:29:59.626Z,11.00
2023-03-06T11:32:40.372Z,11.93
2023-03-06T11:35:21.199Z,11.43
2023-03-06T11:37:53.094Z,11.37
2023-03-06T11:40:37.268Z,10.07
2023-03-06T11:43:07.180Z,13.20
2023-03-06T11:45:44.824Z,12.57
2023-03-06T11:48:14.504Z,11.77
2023-03-06T11:51:03.868Z,13.87
2023-03-06T11:53:34.836Z,11.33
2023-03-06T11:56:19.147Z,12.20
2023-03-06T11:59:03.215Z,11.37
2023-03-06T12:01:47.042Z,13.23
2023-03-06T12:04:30.693Z,10.17
2023-03-06T12:07:25.784Z,12.37
2023-03-06T12:13:05.310Z,10.30
2023-03-06T12:16:09.571Z,12.70
2023-03-06T12:18:39.096Z,11.13
2023-03-06T12:21:17.060Z,12.60
2023-03-06T12:23:52.648Z,12.60
2023-03-06T12:26:33.973Z,11.83
2023-03-06T12:29:18.828Z,10.50
2023-03-06T12:32:04.408Z,12.07
2023-03-06T12:34:34.553Z,10.73
2023-03-06T12:37:08.004Z,10.20
2023-03-06T12:39:42.726Z,9.77
2023-03-06T12:42:23.387Z,9.87
2023-03-06T12:45:30.092Z,11.73
2023-03-06T12:47:58.230Z,8.07
2023-03-06T12:50:30.575Z,7.30
2023-03-06T12:53:06.985Z,7.90
2023-03-06T12:55:47.021Z,8.87
2023-03-06T12:58:31.372Z,7.33
2023-03-06T13:01:06.912Z,8.53
2023-03-06T13:03:49.044Z,8.03
2023-03-06T13:06:51.204Z,5.47
2023-03-06T13:09:31.541Z,5.83
2023-03-06T13:12:34.959Z,7.73
2023-03-06T13:15:37.807Z,6.37
2023-03-06T13:18:22.747Z,6.23
2023-03-06T13:20:53.003Z,6.40
2023-03-06T13:23:43.072Z,5.70
2023-03-06T13:26:09.707Z,6.13
2023-03-06T13:28:46.068Z,7.33
2023-03-06T13:31:26.491Z,12.37
2023-03-06T13:33:55.731Z,13.43
2023-03-06T13:36:29.522Z,10.83
2023-03-06T13:38:57.064Z,11.57
2023-03-06T13:41:23.654Z,12.87
2023-03-06T13:43:53.052Z,9.27
2023-03-06T13:46:28.858Z,11.47
2023-03-06T13:49:10.632Z,10.80
2023-03-06T13:52:04.869Z,9.60
2023-03-06T13:54:54.119Z,9.57
2023-03-06T13:57:48.125Z,10.83
2023-03-06T14:00:33.782Z,13.47
2023-03-06T14:03:25.214Z,11.53
2023-03-06T14:05:52.485Z,11.40
2023-03-06T14:08:26.990Z,15.43
2023-03-06T14:11:13.325Z,11.37
2023-03-06T14:13:48.291Z,15.30
2023-03-06T14:16:24.266Z,14.60
2023-03-06T14:18:53.964Z,13.97
2023-03-06T14:21:39.977Z,14.07
2023-03-06T14:24:06.689Z,15.37
2023-03-06T14:26:40.265Z,14.77
2023-03-06T14:29:19.847Z,15.67
2023-03-06T14:31:49.803Z,15.70
2023-03-06T14:34:25.365Z,15.37
2023-03-06T14:37:05.415Z,16.77
2023-03-06T14:39:39.408Z,16.07
2023-03-06T14:42:24.658Z,18.50
2023-03-06T14:45:03.138Z,16.77
2023-03-06T14:47:36.041Z,14.77
2023-03-06T14:50:19.881Z,17.13
2023-03-06T14:52:47.230Z,16.67
2023-03-06T14:55:22.385Z,17.83
2023-03-06T14:57:56.563Z,18.47
2023-03-06T15:00:26.863Z,17.53
2023-03-06T15:02:55.503Z,16.53
2023-03-06T15:05:29.316Z,19.87
2023-03-06T15:08:01.875Z,18.40
2023-03-06T15:10:31.267Z,15.70
2023-03-06T15:13:27.178Z,15.87
2023-03-06T15:16:01.609Z,19.20
2023-03-06T15:18:35.336Z,17.93
2023-03-06T15:21:09.556Z,19.20
2023-03-06T15:23:39.501Z,16.10
2023-03-06T15:26:29.362Z,17.63
2023-03-06T15:29:19.891Z,18.13
2023-03-06T15:31:46.886Z,16.37
2023-03-06T15:34:18.576Z,16.37
2023-03-06T15:36:48.184Z,15.27
2023-03-06T15:39:41.015Z,14.13
2023-03-06T15:42:07.886Z,14.67
2023-03-06T15:44:34.905Z,14.50
2023-03-06T15:47:09.383Z,14.90
2023-03-06T15:49:38.181Z,15.20
2023-03-06T15:52:06.302Z,15.23
2023-03-06T15:54:33.400Z,13.10
2023-03-06T15:57:00.477Z,13.40
2023-03-06T15:59:33.079Z,14.07
2023-03-06T16:02:10.906Z,12.67
2023-03-06T16:04:37.644Z,10.97
2023-03-06T16:07:04.337Z,12.67
2023-03-06T16:09:32.582Z,12.23
2023-03-06T16:11:59.486Z,13.93
2023-03-06T16:14:26.407Z,13.13
2023-03-06T16:16:54.476Z,11.43
2023-03-06T16:19:27.774Z,15.43
2023-03-06T16:21:56.392Z,12.33
2023-03-06T16:24:23.341Z,17.03
2023-03-06T16:26:52.440Z,14.90
2023-03-06T16:29:24.614Z,15.80
2023-03-06T16:31:51.537Z,15.67
2023-03-06T16:34:21.199Z,14.73
2023-03-06T16:36:49.206Z,13.47
2023-03-06T16:39:20.989Z,13.77
2023-03-06T16:41:49.160Z,14.93
2023-03-06T16:44:16.306Z,15.37
2023-03-06T16:46:45.786Z,15.93
2023-03-06T16:49:25.409Z,16.03
2023-03-06T16:51:52.913Z,17.23
2023-03-06T16:54:20.223Z,16.90
2023-03-06T16:56:46.992Z,18.40
2023-03-06T16:59:13.886Z,17.53
2023-03-06T17:01:44.883Z,16.03
2023-03-06T17:04:11.672Z,19.93
2023-03-06T17:06:38.925Z,18.17
2023-03-06T17:09:05.892Z,20.03
2023-03-06T17:11:32.523Z,22.30
2023-03-06T17:13:59.340Z,19.07
2023-03-06T17:16:26.074Z,20.97
2023-03-06T17:18:54.555Z,19.20
2023-03-06T17:21:21.304Z,21.67
2023-03-06T17:23:48.071Z,17.90
2023-03-06T17:26:18.682Z,20.07
2023-03-06T17:28:45.765Z,21.80
2023-03-06T17:31:12.937Z,19.10
2023-03-06T17:33:39.890Z,19.83
2023-03-06T17:36:07.038Z,19.73
2023-03-06T17:38:34.086Z,20.33
2023-03-06T17:41:05.359Z,21.67
2023-03-06T17:43:32.864Z,19.20
2023-03-06T17:46:07.640Z,18.93
2023-03-06T17:48:34.851Z,16.90
2023-03-06T17:51:02.170Z,17.80
2023-03-06T17:53:28.877Z,16.77
2023-03-06T17:55:57.970Z,19.50
2023-03-06T17:58:26.113Z,19.10
2023-03-06T18:00:53.108Z,19.10
2023-03-06T18:03:19.800Z,15.90
2023-03-06T18:05:46.442Z,18.50
2023-03-06T18:08:13.721Z,18.70
2023-03-06T18:10:41.647Z,18.87
2023-03-06T18:13:09.453Z,17.33
2023-03-06T18:15:40.618Z,16.63
2023-03-06T18:18:08.543Z,18.93
2023-03-06T18:20:40.850Z,22.20
2023-03-06T18:23:07.498Z,20.77
2023-03-06T18:25:34.517Z,18.13
2023-03-06T18:28:01.162Z,19.77
2023-03-06T18:30:27.869Z,18.80
2023-03-06T18:32:54.860Z,20.07
2023-03-06T18:35:21.853Z,18.77
2023-03-06T18:37:48.542Z,16.63
2023-03-06T18:40:15.580Z,17.90
2023-03-06T18:42:42.291Z,19.67
2023-03-06T18:45:10.064Z,20.80
2023-03-06T18:47:36.835Z,18.80
2023-03-06T18:50:03.782Z,17.57
2023-03-06T18:52:30.439Z,19.43
2023-03-06T18:54:57.129Z,17.30
2023-03-06T18:57:23.786Z,20.30
2023-03-06T18:59:50.598Z,17.80
2023-03-06T19:02:17.400Z,19.43
2023-03-06T19:04:44.072Z,20.13
2023-03-06T19:07:13.463Z,19.20
2023-03-06T19:09:40.344Z,20.90
2023-03-06T19:12:07.248Z,20.60
2023-03-06T19:14:34.238Z,20.73
2023-03-06T19:17:01.850Z,19.03
2023-03-06T19:19:29.333Z,19.53
2023-03-06T19:21:59.006Z,22.50
2023-03-06T19:24:25.864Z,18.73
2023-03-06T19:26:52.562Z,21.43
2023-03-06T19:29:19.416Z,23.00
2023-03-06T19:31:46.202Z,19.27
2023-03-06T19:34:12.885Z,25.77
2023-03-06T19:36:40.692Z,18.53
2023-03-06T19:39:08.214Z,21.03
2023-03-06T19:41:35.044Z,18.97
2023-03-06T19:44:03.252Z,18.87
2023-03-06T19:46:31.609Z,20.30
2023-03-06T19:49:00.927Z,19.87
2023-03-06T19:51:28.238Z,24.93
2023-03-06T19:53:56.407Z,19.93
2023-03-06T19:56:28.981Z,19.83
2023-03-06T19:58:56.357Z,19.10
2023-03-06T20:01:24.893Z,20.13
2023-03-06T20:03:58.444Z,20.87
2023-03-06T20:06:31.036Z,22.70
2023-03-06T20:08:57.721Z,22.07
2023-03-06T20:11:29.660Z,20.20
2023-03-06T20:13:58.484Z,21.23
2023-03-06T20:16:27.742Z,19.60
2023-03-06T20:18:55.228Z,22.33
2023-03-06T20:21:23.220Z,24.60
2023-03-06T20:23:50.954Z,21.10
2023-03-06T20:26:18.871Z,19.77
2023-03-06T20:28:45.728Z,22.03
2023-03-06T20:31:17.162Z,20.93
2023-03-06T20:33:44.857Z,23.83
2023-03-06T20:36:13.891Z,21.43
2023-03-06T20:38:40.776Z,19.33
2023-03-06T20:41:08.777Z,21.63
2023-03-06T20:43:35.675Z,23.63
2023-03-06T20:46:03.799Z,23.73
2023-03-06T20:48:30.536Z,23.70
2023-03-06T20:51:05.191Z,23.10
2023-03-06T20:53:32.571Z,20.93
2023-03-06T20:55:59.223Z,24.60
2023-03-06T20:58:28.535Z,27.00
2023-03-06T21:00:55.399Z,21.60
2023-03-06T21:03:22.115Z,23.43
2023-03-06T21:05:48.935Z,22.87
2023-03-06T21:08:16.142Z,24.57
2023-03-06T21:10:45.884Z,22.17
2023-03-06T21:13:13.454Z,23.00
2023-03-06T21:15:41.633Z,22.13
2023-03-06T21:18:09.243Z,27.50
2023-03-06T21:20:39.320Z,22.30
2023-03-06T21:23:06.543Z,23.93
2023-03-06T21:25:33.702Z,25.87
2023-03-06T21:28:00.524Z,24.50
2023-03-06T21:30:30.336Z,25.30
2023-03-06T21:32:56.994Z,22.37
2023-03-06T21:35:23.716Z,26.67
2023-03-06T21:37:50.402Z,30.87
2023-03-06T21:40:17.199Z,23.27
2023-03-06T21:42:43.858Z,24.17
2023-03-06T21:45:10.920Z,26.00
2023-03-06T21:47:38.734Z,28.17
2023-03-06T21:50:07.893Z,22.53
2023-03-06T21:52:34.702Z,24.53
2023-03-06T21:55:01.470Z,27.23
2023-03-06T21:57:28.187Z,27.57
2023-03-06T21:59:54.893Z,26.80
2023-03-06T22:02:21.939Z,27.00
2023-03-06T22:04:52.676Z,26.83
2023-03-06T22:07:20.526Z,26.00
2023-03-06T22:09:47.599Z,25.07
2023-03-06T22:12:14.429Z,28.33
2023-03-06T22:14:43.710Z,27.77
2023-03-06T22:17:10.454Z,26.73
2023-03-06T22:19:37.119Z,29.20
2023-03-06T22:22:04.082Z,25.97
2023-03-06T22:24:31.904Z,30.83
2023-03-06T22:26:58.882Z,25.33
2023-03-06T22:29:25.713Z,27.40
2023-03-06T22:31:52.870Z,26.70
2023-03-06T22:34:19.587Z,26.03
2023-03-06T22:36:46.370Z,26.57
2023-03-06T22:39:13.951Z,24.03
2023-03-06T22:41:41.070Z,23.67
2023-03-06T22:44:07.743Z,25.53
2023-03-06T22:46:34.520Z,26.13
2023-03-06T22:49:02.159Z,27.80
2023-03-06T22:51:29.504Z,23.90
2023-03-06T22:53:56.186Z,24.40
2023-03-06T22:56:23.639Z,27.67
2023-03-06T22:58:50.487Z,24.80
2023-03-06T23:01:20.029Z,24.70
2023-03-06T23:03:52.592Z,25.37
2023-03-06T23:06:22.205Z,21.20
2023-03-06T23:08:51.391Z,25.97
2023-03-06T23:11:19.702Z,21.63
2023-03-06T23:14:05.790Z,24.33
2023-03-06T23:16:51.320Z,21.70
2023-03-06T23:19:36.503Z,20.73
2023-03-06T23:22:21.765Z,20.83
2023-03-06T23:25:07.463Z,23.00
2023-03-06T23:27:35.937Z,21.90
2023-03-06T23:30:04.784Z,20.83
2023-03-06T23:32:34.669Z,20.57
2023-03-06T23:35:01.538Z,20.53
2023-03-06T23:37:28.285Z,26.87
2023-03-06T23:39:55.185Z,22.37
2023-03-06T23:42:22.616Z,24.23
2023-03-06T23:44:49.446Z,21.97
2023-03-06T23:47:17.178Z,20.53
2023-03-06T23:49:43.904Z,19.37
2023-03-06T23:52:10.540Z,22.23
2023-03-06T23:54:37.220Z,21.33
2023-03-06T23:57:04.038Z,19.37
2023-03-06T23:59:30.895Z,19.83
